createdAt,value
2023-05-08T00:00:26.391Z,99159.08
2023-05-08T00:01:52.994Z,99154.77
2023-05-08T00:03:00.984Z,99159.66
2023-05-08T00:04:09.309Z,99153.70
2023-05-08T00:05:16.887Z,99155.48
2023-05-08T00:06:25.067Z,99153.44
2023-05-08T00:07:33.514Z,99156.45
2023-05-08T00:08:41.298Z,99154.14
2023-05-08T00:09:48.171Z,99152.85
2023-05-08T00:10:54.940Z,99153.92
2023-05-08T00:12:02.508Z,99155.16
2023-05-08T00:13:09.787Z,99153.87
2023-05-08T00:14:16.615Z,99151.34
2023-05-08T00:15:23.973Z,99150.86
2023-05-08T00:16:32.123Z,99153.43
2023-05-08T00:17:40.286Z,99150.75
2023-05-08T00:18:47.150Z,99151.56
2023-05-08T00:19:54.314Z,99154.02
2023-05-08T00:21:02.076Z,99150.48
2023-05-08T00:22:09.289Z,99149.40
2023-05-08T00:23:15.938Z,99152.04
2023-05-08T00:24:24.420Z,99151.77
2023-05-08T00:25:33.843Z,99147.52
2023-05-08T00:26:43.309Z,99147.89
2023-05-08T00:27:49.592Z,99143.53
2023-05-08T00:28:57.197Z,99143.11
2023-05-08T00:30:04.422Z,99141.88
2023-05-08T00:31:11.796Z,99141.71
2023-05-08T00:32:20.492Z,99140.27
2023-05-08T00:33:28.248Z,99139.94
2023-05-08T00:34:35.360Z,99140.79
2023-05-08T00:35:45.440Z,99141.34
2023-05-08T00:36:52.890Z,99138.27
2023-05-08T00:38:01.400Z,99139.08
2023-05-08T00:39:09.122Z,99138.33
2023-05-08T00:40:16.614Z,99134.98
2023-05-08T00:41:25.065Z,99134.89
2023-05-08T00:42:32.743Z,99138.10
2023-05-08T00:43:41.191Z,99137.57
2023-05-08T00:44:48.113Z,99136.55
2023-05-08T00:45:56.826Z,99137.04
2023-05-08T00:47:04.746Z,99135.38
2023-05-08T00:48:12.840Z,99134.41
2023-05-08T00:49:20.554Z,99136.23
2023-05-08T00:50:28.909Z,99134.56
2023-05-08T00:51:37.132Z,99132.41
2023-05-08T00:52:45.226Z,99133.96
2023-05-08T00:53:52.641Z,99133.16
2023-05-08T00:55:01.754Z,99133.85
2023-05-08T00:56:09.177Z,99134.39
2023-05-08T00:57:18.179Z,99131.45
2023-05-08T00:58:25.115Z,99133.91
2023-05-08T00:59:34.500Z,99132.67
2023-05-08T01:00:43.981Z,99130.95
2023-05-08T01:01:52.009Z,99125.84
2023-05-08T01:02:59.518Z,99127.79
2023-05-08T01:04:08.149Z,99128.81
2023-05-08T01:05:16.389Z,99130.42
2023-05-08T01:06:24.405Z,99133.60
2023-05-08T01:07:32.348Z,99132.73
2023-05-08T01:08:39.997Z,99132.20
2023-05-08T01:09:47.312Z,99131.45
2023-05-08T01:11:26.133Z,99133.59
2023-05-08T01:13:04.215Z,99134.51
2023-05-08T01:14:32.256Z,99135.58
2023-05-08T01:15:45.542Z,99133.81
2023-05-08T01:17:35.543Z,99131.83
2023-05-08T01:18:48.103Z,99130.31
2023-05-08T01:20:34.178Z,99129.30
2023-05-08T01:21:52.751Z,99130.25
2023-05-08T01:23:38.399Z,99126.80
2023-05-08T01:25:17.712Z,99129.18
2023-05-08T01:27:04.312Z,99131.39
2023-05-08T01:28:52.078Z,99133.48
2023-05-08T01:30:30.705Z,99132.61
2023-05-08T01:32:05.790Z,99133.05
2023-05-08T01:33:19.975Z,99133.96
2023-05-08T01:34:29.138Z,99133.16
2023-05-08T01:35:45.416Z,99132.52
2023-05-08T01:37:00.702Z,99136.55
2023-05-08T01:38:34.183Z,99137.36
2023-05-08T01:40:00.808Z,99135.47
2023-05-08T01:41:26.136Z,99136.38
2023-05-08T01:43:06.268Z,99140.26
2023-05-08T01:44:15.184Z,99141.86
2023-05-08T01:45:29.908Z,99148.48
2023-05-08T01:46:37.298Z,99148.55
2023-05-08T01:47:44.197Z,99148.81
2023-05-08T01:49:02.054Z,99146.66
2023-05-08T01:50:24.870Z,99148.38
2023-05-08T01:51:35.215Z,99147.95
2023-05-08T01:52:48.301Z,99145.73
2023-05-08T01:54:02.376Z,99145.89
2023-05-08T01:55:14.802Z,99146.70
2023-05-08T01:56:23.690Z,99150.95
2023-05-08T01:57:33.259Z,99150.10
2023-05-08T01:58:40.522Z,99152.84
2023-05-08T01:59:50.416Z,99150.84
2023-05-08T02:01:00.549Z,99154.77
2023-05-08T02:02:08.180Z,99153.90
2023-05-08T02:03:17.524Z,99152.89
2023-05-08T02:04:25.519Z,99152.09
2023-05-08T02:05:33.940Z,99152.62
2023-05-08T02:06:42.411Z,99153.91
2023-05-08T02:07:49.572Z,99152.41
2023-05-08T02:08:58.727Z,99154.66
2023-05-08T02:10:07.879Z,99152.52
2023-05-08T02:11:15.428Z,99152.39
2023-05-08T02:12:24.566Z,99153.80
2023-05-08T02:13:35.155Z,99154.86
2023-05-08T02:14:44.395Z,99150.80
2023-05-08T02:15:54.464Z,99150.15
2023-05-08T02:17:04.387Z,99149.23
2023-05-08T02:18:13.281Z,99148.20
2023-05-08T02:19:20.969Z,99149.45
2023-05-08T02:20:28.645Z,99150.35
2023-05-08T02:21:37.479Z,99151.34
2023-05-08T02:22:49.139Z,99152.41
2023-05-08T02:23:58.884Z,99154.08
2023-05-08T02:25:08.288Z,99154.55
2023-05-08T02:26:16.933Z,99154.98
2023-05-08T02:27:25.415Z,99155.25
2023-05-08T02:28:33.429Z,99155.69
2023-05-08T02:29:41.749Z,99152.99
2023-05-08T02:30:54.846Z,99150.78
2023-05-08T02:32:04.992Z,99151.96
2023-05-08T02:33:14.219Z,99152.50
2023-05-08T02:34:23.146Z,99151.21
2023-05-08T02:35:33.910Z,99151.75
2023-05-08T02:36:42.288Z,99154.10
2023-05-08T02:37:54.138Z,99155.55
2023-05-08T02:39:01.878Z,99154.27
2023-05-08T02:40:12.631Z,99155.13
2023-05-08T02:41:22.476Z,99151.73
2023-05-08T02:42:31.157Z,99151.52
2023-05-08T02:43:42.102Z,99152.76
2023-05-08T02:44:52.683Z,99153.19
2023-05-08T02:46:15.570Z,99154.33
2023-05-08T02:47:29.722Z,99154.58
2023-05-08T02:48:41.296Z,99154.91
2023-05-08T02:49:56.761Z,99153.56
2023-05-08T02:51:23.519Z,99156.80
2023-05-08T02:52:38.749Z,99156.95
2023-05-08T02:54:09.806Z,99160.34
2023-05-08T02:55:31.968Z,99160.52
2023-05-08T02:56:47.012Z,99161.91
2023-05-08T02:58:25.238Z,99162.34
2023-05-08T02:59:41.196Z,99164.38
2023-05-08T03:00:54.731Z,99165.02
2023-05-08T03:02:29.872Z,99165.34
2023-05-08T03:03:44.050Z,99164.00
2023-05-08T03:04:55.765Z,99165.71
2023-05-08T03:06:05.550Z,99168.78
2023-05-08T03:07:14.853Z,99170.27
2023-05-08T03:08:40.409Z,99167.54
2023-05-08T03:09:50.280Z,99172.48
2023-05-08T03:10:59.941Z,99173.39
2023-05-08T03:12:12.009Z,99169.41
2023-05-08T03:13:20.740Z,99170.98
2023-05-08T03:14:30.170Z,99169.52
2023-05-08T03:15:43.319Z,99168.77
2023-05-08T03:16:53.311Z,99165.21
2023-05-08T03:18:05.215Z,99164.14
2023-05-08T03:19:23.254Z,99166.23
2023-05-08T03:20:34.633Z,99166.44
2023-05-08T03:21:44.390Z,99168.23
2023-05-08T03:22:52.681Z,99167.30
2023-05-08T03:24:02.269Z,99167.15
2023-05-08T03:25:11.608Z,99169.77
2023-05-08T03:26:22.387Z,99167.46
2023-05-08T03:27:32.376Z,99168.70
2023-05-08T03:28:39.486Z,99170.54
2023-05-08T03:29:47.791Z,99169.94
2023-05-08T03:30:56.223Z,99168.27
2023-05-08T03:32:03.961Z,99172.31
2023-05-08T03:33:11.725Z,99174.84
2023-05-08T03:34:20.565Z,99175.38
2023-05-08T03:35:28.808Z,99177.48
2023-05-08T03:36:36.970Z,99176.98
2023-05-08T03:37:44.529Z,99177.52
2023-05-08T03:38:52.631Z,99179.79
2023-05-08T03:40:01.485Z,99181.14
2023-05-08T03:41:09.662Z,99179.67
2023-05-08T03:42:23.285Z,99182.36
2023-05-08T03:43:32.512Z,99180.16
2023-05-08T03:44:40.673Z,99182.54
2023-05-08T03:45:47.698Z,99183.23
2023-05-08T03:46:57.623Z,99184.14
2023-05-08T03:48:06.812Z,99188.34
2023-05-08T03:49:15.267Z,99190.16
2023-05-08T03:50:23.108Z,99189.63
2023-05-08T03:51:30.582Z,99193.27
2023-05-08T03:52:38.799Z,99191.56
2023-05-08T03:53:46.501Z,99192.36
2023-05-08T03:54:54.116Z,99196.94
2023-05-08T03:56:03.573Z,99195.42
2023-05-08T03:57:12.711Z,99198.05
2023-05-08T03:59:01.526Z,99201.08
2023-05-08T04:00:11.488Z,99201.51
2023-05-08T04:01:55.017Z,99207.70
2023-05-08T04:03:25.056Z,99207.11
2023-05-08T04:04:44.744Z,99207.77
2023-05-08T04:06:15.269Z,99207.81
2023-05-08T04:07:34.438Z,99209.63
2023-05-08T04:08:57.700Z,99210.51
2023-05-08T04:10:18.183Z,99213.30
2023-05-08T04:12:05.091Z,99212.98
2023-05-08T04:13:17.948Z,99213.39
2023-05-08T04:14:28.274Z,99216.26
2023-05-08T04:15:40.688Z,99213.83
2023-05-08T04:16:51.856Z,99215.88
2023-05-08T04:18:01.911Z,99214.09
2023-05-08T04:19:14.938Z,99214.38
2023-05-08T04:20:23.855Z,99220.24
2023-05-08T04:21:33.513Z,99219.64
2023-05-08T04:22:42.335Z,99220.89
2023-05-08T04:23:50.121Z,99222.27
2023-05-08T04:24:56.948Z,99222.59
2023-05-08T04:26:05.433Z,99226.14
2023-05-08T04:27:13.382Z,99227.06
2023-05-08T04:28:20.561Z,99228.89
2023-05-08T04:29:27.740Z,99233.23
2023-05-08T04:30:35.247Z,99232.32
2023-05-08T04:31:42.533Z,99234.73
2023-05-08T04:32:49.704Z,99234.63
2023-05-08T04:33:57.046Z,99232.58
2023-05-08T04:35:04.937Z,99232.25
2023-05-08T04:36:18.417Z,99232.52
2023-05-08T04:37:29.809Z,99233.59
2023-05-08T04:38:41.308Z,99235.36
2023-05-08T04:39:52.063Z,99235.63
2023-05-08T04:40:59.282Z,99236.06
2023-05-08T04:42:09.651Z,99236.39
2023-05-08T04:43:16.659Z,99238.05
2023-05-08T04:44:24.132Z,99238.27
2023-05-08T04:45:31.141Z,99238.96
2023-05-08T04:46:37.859Z,99239.98
2023-05-08T04:47:44.780Z,99239.13
2023-05-08T04:48:51.650Z,99241.94
2023-05-08T04:50:00.035Z,99242.73
2023-05-08T04:51:08.998Z,99243.55
2023-05-08T04:52:16.476Z,99241.52
2023-05-08T04:53:23.332Z,99243.44
2023-05-08T04:54:30.528Z,99242.04
2023-05-08T04:55:37.431Z,99242.15
2023-05-08T04:56:45.647Z,99243.98
2023-05-08T04:57:52.912Z,99243.92
2023-05-08T04:58:59.888Z,99245.58
2023-05-08T05:00:07.601Z,99245.96
2023-05-08T05:01:17.835Z,99242.64
2023-05-08T05:02:25.029Z,99241.35
2023-05-08T05:03:32.408Z,99242.36
2023-05-08T05:04:39.565Z,99245.64
2023-05-08T05:05:46.562Z,99243.92
2023-05-08T05:06:53.320Z,99243.44
2023-05-08T05:08:00.151Z,99245.70
2023-05-08T05:09:06.813Z,99246.08
2023-05-08T05:10:13.639Z,99244.09
2023-05-08T05:11:24.899Z,99242.85
2023-05-08T05:12:35.580Z,99243.02
2023-05-08T05:13:43.197Z,99242.52
2023-05-08T05:14:50.266Z,99243.88
2023-05-08T05:15:57.588Z,99246.40
2023-05-08T05:17:04.280Z,99243.11
2023-05-08T05:18:11.188Z,99243.22
2023-05-08T05:19:18.350Z,99239.98
2023-05-08T05:20:26.102Z,99238.69
2023-05-08T05:21:33.340Z,99234.71
2023-05-08T05:22:40.724Z,99232.67
2023-05-08T05:23:48.150Z,99234.07
2023-05-08T05:24:55.486Z,99230.69
2023-05-08T05:26:02.430Z,99229.93
2023-05-08T05:27:10.240Z,99230.84
2023-05-08T05:28:17.939Z,99230.68
2023-05-08T05:29:25.445Z,99228.52
2023-05-08T05:30:34.406Z,99229.77
2023-05-08T05:31:42.210Z,99230.30
2023-05-08T05:32:49.085Z,99229.27
2023-05-08T05:33:56.746Z,99228.09
2023-05-08T05:35:03.951Z,99228.10
2023-05-08T05:36:11.357Z,99228.89
2023-05-08T05:37:21.636Z,99230.89
2023-05-08T05:38:30.078Z,99227.83
2023-05-08T05:39:39.317Z,99229.27
2023-05-08T05:40:46.598Z,99227.92
2023-05-08T05:41:53.505Z,99230.39
2023-05-08T05:43:00.982Z,99232.11
2023-05-08T05:44:08.021Z,99228.66
2023-05-08T05:45:16.046Z,99228.30
2023-05-08T05:46:22.959Z,99223.93
2023-05-08T05:47:30.159Z,99224.52
2023-05-08T05:48:37.595Z,99223.23
2023-05-08T05:49:49.055Z,99223.07
2023-05-08T05:50:55.857Z,99220.22
2023-05-08T05:52:05.444Z,99219.36
2023-05-08T05:53:16.366Z,99220.92
2023-05-08T05:54:23.480Z,99218.01
2023-05-08T05:55:31.068Z,99219.19
2023-05-08T05:56:38.816Z,99216.17
2023-05-08T05:57:46.493Z,99213.38
2023-05-08T05:58:53.319Z,99208.54
2023-05-08T06:00:01.206Z,99210.36
2023-05-08T06:01:09.435Z,99209.40
2023-05-08T06:02:20.502Z,99207.80
2023-05-08T06:03:30.035Z,99207.54
2023-05-08T06:04:38.628Z,99203.17
2023-05-08T06:05:49.058Z,99204.48
2023-05-08T06:06:57.011Z,99202.86
2023-05-08T06:08:04.800Z,99197.48
2023-05-08T06:09:12.571Z,99200.06
2023-05-08T06:10:20.353Z,99198.18
2023-05-08T06:11:28.819Z,99200.33
2023-05-08T06:12:38.305Z,99196.56
2023-05-08T06:13:47.272Z,99195.42
2023-05-08T06:14:57.170Z,99197.36
2023-05-08T06:16:04.405Z,99198.21
2023-05-08T06:17:13.580Z,99198.06
2023-05-08T06:18:21.730Z,99196.45
2023-05-08T06:19:30.083Z,99197.08
2023-05-08T06:20:40.924Z,99195.95
2023-05-08T06:21:49.024Z,99192.03
2023-05-08T06:22:56.156Z,99196.11
2023-05-08T06:24:05.111Z,99194.76
2023-05-08T06:25:13.663Z,99195.67
2023-05-08T06:26:22.759Z,99195.73
2023-05-08T06:27:32.019Z,99197.23
2023-05-08T06:28:39.528Z,99196.80
2023-05-08T06:29:46.568Z,99193.91
2023-05-08T06:30:53.742Z,99192.51
2023-05-08T06:32:01.683Z,99195.23
2023-05-08T06:33:10.315Z,99191.38
2023-05-08T06:34:17.367Z,99192.70
2023-05-08T06:35:24.495Z,99192.08
2023-05-08T06:36:32.502Z,99189.59
2023-05-08T06:37:40.113Z,99185.83
2023-05-08T06:38:48.076Z,99187.81
2023-05-08T06:40:10.175Z,99187.13
2023-05-08T06:41:19.571Z,99188.57
2023-05-08T06:42:28.065Z,99187.49
2023-05-08T06:43:34.948Z,99186.70
2023-05-08T06:44:43.412Z,99186.73
2023-05-08T06:45:50.501Z,99188.68
2023-05-08T06:46:57.861Z,99190.51
2023-05-08T06:48:05.357Z,99191.16
2023-05-08T06:49:13.317Z,99190.59
2023-05-08T06:50:20.338Z,99189.34
2023-05-08T06:51:28.189Z,99186.52
2023-05-08T06:52:36.992Z,99186.38
2023-05-08T06:53:44.502Z,99189.92
2023-05-08T06:54:51.843Z,99189.45
2023-05-08T06:56:00.726Z,99189.66
2023-05-08T06:57:08.037Z,99188.96
2023-05-08T06:58:17.508Z,99189.27
2023-05-08T06:59:26.250Z,99190.41
2023-05-08T07:00:33.085Z,99190.25
2023-05-08T07:01:40.132Z,99189.39
2023-05-08T07:02:47.985Z,99188.11
2023-05-08T07:03:55.696Z,99189.83
2023-05-08T07:05:03.526Z,99192.62
2023-05-08T07:06:12.029Z,99188.80
2023-05-08T07:07:20.106Z,99187.72
2023-05-08T07:08:28.259Z,99191.16
2023-05-08T07:09:36.114Z,99191.31
2023-05-08T07:10:43.293Z,99189.55
2023-05-08T07:11:50.424Z,99189.39
2023-05-08T07:12:57.481Z,99189.70
2023-05-08T07:14:05.229Z,99189.10
2023-05-08T07:15:24.614Z,99188.20
2023-05-08T07:16:35.794Z,99189.65
2023-05-08T07:17:43.759Z,99190.02
2023-05-08T07:18:50.917Z,99190.66
2023-05-08T07:19:58.207Z,99191.73
2023-05-08T07:21:05.093Z,99190.66
2023-05-08T07:22:14.195Z,99195.98
2023-05-08T07:23:21.619Z,99195.99
2023-05-08T07:24:29.158Z,99194.70
2023-05-08T07:25:37.314Z,99193.30
2023-05-08T07:26:45.485Z,99186.90
2023-05-08T07:27:53.869Z,99189.54
2023-05-08T07:29:01.234Z,99191.20
2023-05-08T07:30:09.940Z,99191.80
2023-05-08T07:31:17.376Z,99191.36
2023-05-08T07:32:24.736Z,99191.69
2023-05-08T07:33:32.607Z,99189.95
2023-05-08T07:34:41.022Z,99190.34
2023-05-08T07:35:48.381Z,99191.89
2023-05-08T07:36:55.412Z,99188.84
2023-05-08T07:38:03.416Z,99189.91
2023-05-08T07:39:11.290Z,99186.73
2023-05-08T07:40:18.618Z,99184.26
2023-05-08T07:41:28.584Z,99185.34
2023-05-08T07:42:43.220Z,99187.81
2023-05-08T07:43:50.404Z,99187.65
2023-05-08T07:44:57.622Z,99186.09
2023-05-08T07:46:05.365Z,99187.64
2023-05-08T07:47:13.610Z,99187.59
2023-05-08T07:48:22.341Z,99186.67
2023-05-08T07:49:30.489Z,99185.60
2023-05-08T07:50:39.278Z,99181.30
2023-05-08T07:51:47.134Z,99178.92
2023-05-08T07:52:53.867Z,99183.92
2023-05-08T07:54:01.286Z,99178.96
2023-05-08T07:55:09.077Z,99183.97
2023-05-08T07:56:15.552Z,99180.15
2023-05-08T07:57:22.389Z,99181.60
2023-05-08T07:58:31.848Z,99181.60
2023-05-08T07:59:39.113Z,99178.21
2023-05-08T08:00:46.973Z,99177.02
2023-05-08T08:01:54.723Z,99179.13
2023-05-08T08:03:03.464Z,99176.65
2023-05-08T08:04:13.454Z,99178.43
2023-05-08T08:05:23.191Z,99178.75
2023-05-08T08:06:31.082Z,99177.67
2023-05-08T08:07:39.267Z,99178.21
2023-05-08T08:08:46.732Z,99178.38
2023-05-08T08:09:53.609Z,99175.63
2023-05-08T08:11:03.700Z,99175.67
2023-05-08T08:12:11.242Z,99175.14
2023-05-08T08:13:19.247Z,99177.46
2023-05-08T08:14:27.506Z,99177.98
2023-05-08T08:15:35.113Z,99177.14
2023-05-08T08:16:44.677Z,99178.38
2023-05-08T08:17:52.064Z,99175.67
2023-05-08T08:19:02.548Z,99173.75
2023-05-08T08:20:10.925Z,99174.55
2023-05-08T08:21:18.492Z,99173.54
2023-05-08T08:22:28.184Z,99173.48
2023-05-08T08:23:37.073Z,99173.25
2023-05-08T08:24:44.623Z,99173.85
2023-05-08T08:25:52.090Z,99174.66
2023-05-08T08:26:59.478Z,99173.75
2023-05-08T08:28:07.005Z,99172.67
2023-05-08T08:29:14.939Z,99172.56
2023-05-08T08:30:22.865Z,99173.80
2023-05-08T08:31:30.702Z,99174.70
2023-05-08T08:32:39.067Z,99173.95
2023-05-08T08:33:46.890Z,99173.04
2023-05-08T08:34:53.540Z,99175.67
2023-05-08T08:36:00.743Z,99172.39
2023-05-08T08:37:14.623Z,99174.33
2023-05-08T08:38:21.265Z,99173.42
2023-05-08T08:39:28.458Z,99172.92
2023-05-08T08:40:40.538Z,99171.09
2023-05-08T08:41:48.328Z,99171.69
2023-05-08T08:42:56.827Z,99171.15
2023-05-08T08:44:05.025Z,99171.63
2023-05-08T08:45:13.698Z,99172.35
2023-05-08T08:46:22.348Z,99171.89
2023-05-08T08:47:40.077Z,99170.39
2023-05-08T08:48:48.320Z,99166.30
2023-05-08T08:49:56.802Z,99164.90
2023-05-08T08:51:05.449Z,99163.67
2023-05-08T08:52:41.741Z,99164.69
2023-05-08T08:53:49.242Z,99159.96
2023-05-08T08:54:57.136Z,99160.76
2023-05-08T08:56:05.239Z,99162.91
2023-05-08T08:57:14.809Z,99159.69
2023-05-08T08:58:48.691Z,99159.84
2023-05-08T08:59:55.981Z,99157.91
2023-05-08T09:01:05.261Z,99157.54
2023-05-08T09:02:14.225Z,99156.55
2023-05-08T09:03:21.937Z,99158.33
2023-05-08T09:04:31.269Z,99159.63
2023-05-08T09:05:39.653Z,99157.20
2023-05-08T09:06:47.388Z,99156.30
2023-05-08T09:07:58.453Z,99155.43
2023-05-08T09:09:06.009Z,99155.54
2023-05-08T09:10:16.518Z,99156.30
2023-05-08T09:11:23.259Z,99153.71
2023-05-08T09:12:30.420Z,99154.20
2023-05-08T09:13:37.704Z,99150.38
2023-05-08T09:14:45.923Z,99152.04
2023-05-08T09:15:52.777Z,99153.22
2023-05-08T09:17:01.315Z,99154.77
2023-05-08T09:18:09.447Z,99151.33
2023-05-08T09:19:18.148Z,99154.98
2023-05-08T09:20:26.072Z,99154.55
2023-05-08T09:21:35.124Z,99151.00
2023-05-08T09:22:43.271Z,99150.25
2023-05-08T09:23:58.815Z,99150.19
2023-05-08T09:25:06.710Z,99148.52
2023-05-08T09:26:15.093Z,99145.52
2023-05-08T09:27:27.150Z,99144.87
2023-05-08T09:28:35.002Z,99145.14
2023-05-08T09:29:43.158Z,99145.07
2023-05-08T09:31:01.206Z,99142.70
2023-05-08T09:32:09.854Z,99142.06
2023-05-08T09:33:17.816Z,99142.60
2023-05-08T09:34:31.425Z,99138.83
2023-05-08T09:35:39.524Z,99139.31
2023-05-08T09:36:46.634Z,99139.47
2023-05-08T09:37:54.269Z,99140.12
2023-05-08T09:39:04.033Z,99141.89
2023-05-08T09:40:20.986Z,99141.59
2023-05-08T09:41:28.416Z,99138.64
2023-05-08T09:42:40.802Z,99139.27
2023-05-08T09:44:02.922Z,99135.45
2023-05-08T09:45:11.630Z,99134.86
2023-05-08T09:46:24.519Z,99136.96
2023-05-08T09:47:31.517Z,99138.89
2023-05-08T09:48:41.202Z,99139.59
2023-05-08T09:50:12.106Z,99140.29
2023-05-08T09:51:20.312Z,99142.28
2023-05-08T09:52:29.137Z,99143.73
2023-05-08T09:53:36.052Z,99137.98
2023-05-08T09:54:45.865Z,99139.48
2023-05-08T09:55:52.691Z,99137.33
2023-05-08T09:57:00.262Z,99139.20
2023-05-08T09:58:07.726Z,99139.41
2023-05-08T09:59:28.531Z,99137.05
2023-05-08T10:00:35.764Z,99139.20
2023-05-08T10:01:42.848Z,99136.89
2023-05-08T10:03:04.410Z,99140.44
2023-05-08T10:04:11.375Z,99137.15
2023-05-08T10:05:32.762Z,99136.02
2023-05-08T10:06:40.332Z,99136.39
2023-05-08T10:07:48.001Z,99135.86
2023-05-08T10:09:15.774Z,99136.87
2023-05-08T10:10:30.365Z,99134.73
2023-05-08T10:11:37.911Z,99132.95
2023-05-08T10:12:45.601Z,99132.90
2023-05-08T10:13:52.138Z,99136.67
2023-05-08T10:14:59.632Z,99136.30
2023-05-08T10:16:06.511Z,99135.59
2023-05-08T10:17:13.525Z,99137.75
2023-05-08T10:18:24.841Z,99138.39
2023-05-08T10:19:32.983Z,99138.34
2023-05-08T10:20:41.634Z,99134.80
2023-05-08T10:21:51.059Z,99134.09
2023-05-08T10:22:59.702Z,99133.55
2023-05-08T10:24:12.414Z,99136.41
2023-05-08T10:25:20.507Z,99138.13
2023-05-08T10:26:31.805Z,99138.02
2023-05-08T10:27:52.295Z,99140.88
2023-05-08T10:29:01.248Z,99141.58
2023-05-08T10:30:09.721Z,99140.38
2023-05-08T10:31:18.371Z,99141.94
2023-05-08T10:32:25.804Z,99144.48
2023-05-08T10:33:37.727Z,99144.85
2023-05-08T10:34:44.865Z,99144.26
2023-05-08T10:35:52.166Z,99142.91
2023-05-08T10:36:59.562Z,99141.52
2023-05-08T10:38:06.861Z,99137.48
2023-05-08T10:39:14.981Z,99140.38
2023-05-08T10:40:22.683Z,99139.30
2023-05-08T10:41:31.311Z,99140.77
2023-05-08T10:42:38.577Z,99140.44
2023-05-08T10:43:46.688Z,99143.29
2023-05-08T10:44:53.575Z,99144.20
2023-05-08T10:46:01.223Z,99143.18
2023-05-08T10:47:39.202Z,99141.89
2023-05-08T10:49:26.516Z,99138.23
2023-05-08T10:51:03.609Z,99135.10
2023-05-08T10:52:36.649Z,99130.86
2023-05-08T10:53:54.396Z,99133.44
2023-05-08T10:55:31.491Z,99131.83
2023-05-08T10:56:41.434Z,99132.20
2023-05-08T10:58:11.815Z,99132.73
2023-05-08T10:59:26.221Z,99129.84
2023-05-08T11:01:12.582Z,99129.40
2023-05-08T11:02:20.084Z,99127.52
2023-05-08T11:03:31.208Z,99125.77
2023-05-08T11:04:39.932Z,99123.14
2023-05-08T11:05:51.704Z,99123.08
2023-05-08T11:07:01.290Z,99121.55
2023-05-08T11:08:15.855Z,99123.94
2023-05-08T11:09:48.318Z,99123.52
2023-05-08T11:11:07.499Z,99126.63
2023-05-08T11:12:28.301Z,99130.84
2023-05-08T11:13:57.259Z,99129.98
2023-05-08T11:15:07.952Z,99130.52
2023-05-08T11:16:14.972Z,99131.70
2023-05-08T11:17:26.658Z,99132.02
2023-05-08T11:18:48.668Z,99134.11
2023-05-08T11:19:58.631Z,99132.55
2023-05-08T11:21:08.707Z,99131.26
2023-05-08T11:22:18.631Z,99131.30
2023-05-08T11:23:34.643Z,99129.15
2023-05-08T11:24:42.406Z,99131.73
2023-05-08T11:25:50.344Z,99134.04
2023-05-08T11:26:57.217Z,99131.08
2023-05-08T11:28:12.092Z,99130.76
2023-05-08T11:29:20.547Z,99132.09
2023-05-08T11:30:37.984Z,99133.02
2023-05-08T11:31:55.013Z,99118.06
2023-05-08T11:33:18.643Z,99115.84
2023-05-08T11:34:47.536Z,99118.27
2023-05-08T11:36:02.471Z,99121.16
2023-05-08T11:37:13.519Z,99123.11
2023-05-08T11:38:37.750Z,99126.19
2023-05-08T11:39:45.085Z,99125.98
2023-05-08T11:41:10.658Z,99125.13
2023-05-08T11:42:36.312Z,99130.83
2023-05-08T11:44:12.558Z,99127.81
2023-05-08T11:45:21.858Z,99128.04
2023-05-08T11:46:44.969Z,99130.83
2023-05-08T11:47:51.892Z,99128.14
2023-05-08T11:49:03.038Z,99132.44
2023-05-08T11:50:15.750Z,99134.05
2023-05-08T11:51:23.481Z,99134.04
2023-05-08T11:52:34.804Z,99131.20
2023-05-08T11:53:42.891Z,99127.48
2023-05-08T11:54:49.720Z,99130.11
2023-05-08T11:55:57.357Z,99128.60
2023-05-08T11:57:07.155Z,99127.85
2023-05-08T11:58:15.544Z,99128.00
2023-05-08T11:59:23.193Z,99126.39
2023-05-08T12:00:30.339Z,99125.59
2023-05-08T12:01:39.052Z,99123.96
2023-05-08T12:02:49.877Z,99121.77
2023-05-08T12:04:09.348Z,99120.85
2023-05-08T12:05:17.848Z,99116.98
2023-05-08T12:06:26.072Z,99118.70
2023-05-08T12:07:33.976Z,99119.02
2023-05-08T12:08:42.796Z,99119.13
2023-05-08T12:09:49.919Z,99122.20
2023-05-08T12:10:58.936Z,99124.72
2023-05-08T12:12:06.269Z,99125.74
2023-05-08T12:13:24.657Z,99125.10
2023-05-08T12:14:32.865Z,99129.67
2023-05-08T12:15:40.950Z,99131.06
2023-05-08T12:16:48.885Z,99128.59
2023-05-08T12:18:05.148Z,99133.27
2023-05-08T12:19:15.424Z,99132.85
2023-05-08T12:20:22.232Z,99133.71
2023-05-08T12:21:29.010Z,99134.56
2023-05-08T12:22:36.373Z,99134.56
2023-05-08T12:23:43.084Z,99136.88
2023-05-08T12:24:53.060Z,99135.20
2023-05-08T12:26:03.253Z,99138.43
2023-05-08T12:27:10.517Z,99139.19
2023-05-08T12:28:17.654Z,99137.85
2023-05-08T12:29:27.467Z,99139.90
2023-05-08T12:30:35.267Z,99141.62
2023-05-08T12:31:43.004Z,99140.11
2023-05-08T12:32:50.007Z,99138.66
2023-05-08T12:33:57.260Z,99137.33
2023-05-08T12:35:04.686Z,99139.39
2023-05-08T12:36:12.391Z,99143.38
2023-05-08T12:37:28.312Z,99145.00
2023-05-08T12:38:35.828Z,99142.87
2023-05-08T12:39:45.985Z,99142.80
2023-05-08T12:40:57.537Z,99143.02
2023-05-08T12:42:07.728Z,99143.95
2023-05-08T12:43:15.204Z,99147.24
2023-05-08T12:44:26.532Z,99148.55
2023-05-08T12:45:40.574Z,99152.23
2023-05-08T12:46:52.872Z,99154.88
2023-05-08T12:48:05.233Z,99153.38
2023-05-08T12:49:14.188Z,99156.56
2023-05-08T12:50:22.592Z,99157.92
2023-05-08T12:51:33.459Z,99157.84
2023-05-08T12:52:40.974Z,99158.88
2023-05-08T12:53:49.062Z,99159.86
2023-05-08T12:54:56.492Z,99164.31
2023-05-08T12:56:04.647Z,99163.64
2023-05-08T12:57:15.101Z,99165.16
2023-05-08T12:58:26.049Z,99166.20
2023-05-08T12:59:36.081Z,99169.77
2023-05-08T13:00:51.715Z,99171.44
2023-05-08T13:01:59.463Z,99174.52
2023-05-08T13:03:07.751Z,99172.23
2023-05-08T13:04:14.092Z,99174.74
2023-05-08T13:05:24.920Z,99175.57
2023-05-08T13:06:32.882Z,99177.42
2023-05-08T13:07:39.957Z,99175.41
2023-05-08T13:08:46.322Z,99172.39
2023-05-08T13:10:06.735Z,99172.92
2023-05-08T13:11:13.545Z,99173.31
2023-05-08T13:12:23.871Z,99175.09
2023-05-08T13:13:33.446Z,99175.15
2023-05-08T13:14:40.337Z,99176.23
2023-05-08T13:15:47.556Z,99174.48
2023-05-08T13:16:54.527Z,99175.99
2023-05-08T13:18:02.169Z,99177.09
2023-05-08T13:19:08.962Z,99176.66
2023-05-08T13:20:17.151Z,99180.80
2023-05-08T13:21:25.097Z,99180.47
2023-05-08T13:22:33.697Z,99181.83
2023-05-08T13:23:42.129Z,99182.10
2023-05-08T13:24:48.812Z,99185.18
2023-05-08T13:25:56.055Z,99188.20
2023-05-08T13:27:03.290Z,99187.48
2023-05-08T13:28:11.136Z,99185.83
2023-05-08T13:29:18.282Z,99187.61
2023-05-08T13:30:25.280Z,99187.61
2023-05-08T13:31:31.944Z,99187.56
2023-05-08T13:32:39.328Z,99185.69
2023-05-08T13:33:45.961Z,99184.02
2023-05-08T13:34:55.260Z,99183.90
2023-05-08T13:36:06.666Z,99183.86
2023-05-08T13:37:13.616Z,99183.59
2023-05-08T13:38:20.192Z,99180.11
2023-05-08T13:39:27.131Z,99181.34
2023-05-08T13:40:34.829Z,99182.48
2023-05-08T13:41:45.092Z,99180.66
2023-05-08T13:42:52.381Z,99181.63
2023-05-08T13:44:00.346Z,99181.73
2023-05-08T13:45:15.654Z,99178.45
2023-05-08T13:46:22.363Z,99180.17
2023-05-08T13:47:29.169Z,99181.91
2023-05-08T13:48:36.131Z,99182.40
2023-05-08T13:49:43.113Z,99184.23
2023-05-08T13:50:49.974Z,99187.02
2023-05-08T13:51:57.453Z,99188.36